NowCast ZoneCast Warnings/Advisories Hourly Track Special Radar
Punta Gorda, Charlotte County Airport, United States  Lat: 26.92N, Lon: 81.99W
ICAO Used: KPGD
Current Conditions
Updated: 3:53 PM EST FRI OCT 24 2014
Sun & Moon Information:
Fair
Fair
Temp: 84°F
Humidity: 44%
Wind Speed: N10.4MPH(9KT)
Barometer: 29.87 in.
Dewpoint: 60°F
Heat Index: 84°F
Wind Chill: 84°F
Civil Twilight: 6:08 AM EST Moon Phase:
Waxing Crescent Moon
Waxing Crescent Moon
Sunrise: 6:31 AM EST
Sunset: 5:51 PM EST
Civil Twilight: 6:15 PM EST
Forecast for Punta Gorda, Charlotte County Airport, FL, United States:
(Forecast based on TAF for )
0700 PM EST THU OCT 23 2014
  
OVERNIGHT MORNING AFTERNOON EVENING OVERNIGHT
Partly Cloudy Partly Cloudy Partly Cloudy Partly Cloudy Partly Cloudy
Partly
Cloudy
Partly
Cloudy
Partly
Cloudy
Partly
Cloudy
Partly
Cloudy
TAF based forecast:
Dated: 0700 PM EST THU OCT 23 2014
Overnight...Turning partly cloudy with winds from the northnortheast at 7 mph.
Morning...Partly cloudy with winds from the northnortheast at 7 mph.
Afternoon...Partly cloudy with winds from the northnortheast at 10 mph.
Evening...Partly cloudy with winds from the northnortheast at 10 mph.
Overnight...Partly cloudy with winds from the northnortheast at 10 mph.
Original Encoded TAF:
Dated: 0700 PM EST THU OCT 23 2014
KPGD 241740Z 2418/2518 06011G18KT P6SM FEW050 FEW250 
     FM250000 02006KT P6SM FEW250 
     FM251400 02009KT P6SM FEW040